sensor_id;sensor_type;location;lat;lon;timestamp;pressure;altitude;pressure_sealevel;temperature;humidity
61742;BME280;47650;49.848;9.620;2023-02-04T00:00:11;100746.59;;;9.47;61.08
61742;BME280;47650;49.848;9.620;2023-02-04T00:02:39;100741.66;;;9.67;61.23
61742;BME280;47650;49.848;9.620;2023-02-04T00:05:05;100751.00;;;9.59;61.46
61742;BME280;47650;49.848;9.620;2023-02-04T00:07:31;100603.72;;;8.73;61.41
61742;BME280;47650;49.848;9.620;2023-02-04T00:09:56;100742.03;;;9.62;61.06
61742;BME280;47650;49.848;9.620;2023-02-04T00:12:21;100759.97;;;9.70;61.67
61742;BME280;47650;49.848;9.620;2023-02-04T00:14:57;100677.91;;;8.96;62.61
61742;BME280;47650;49.848;9.620;2023-02-04T00:17:25;100762.28;;;8.88;63.77
61742;BME280;47650;49.848;9.620;2023-02-04T00:19:55;100725.78;;;8.27;63.99
61742;BME280;47650;49.848;9.620;2023-02-04T00:22:21;100732.16;;;8.37;65.10
61742;BME280;47650;49.848;9.620;2023-02-04T00:24:55;100766.97;;;8.44;64.29
61742;BME280;47650;49.848;9.620;2023-02-04T00:27:21;100752.81;;;8.58;64.34
61742;BME280;47650;49.848;9.620;2023-02-04T00:29:47;100752.81;;;8.45;64.08
61742;BME280;47650;49.848;9.620;2023-02-04T00:32:16;100748.50;;;8.57;63.96
61742;BME280;47650;49.848;9.620;2023-02-04T00:34:41;100767.50;;;8.09;64.77
61742;BME280;47650;49.848;9.620;2023-02-04T00:37:07;100773.56;;;8.24;63.49
61742;BME280;47650;49.848;9.620;2023-02-04T00:39:32;100788.81;;;8.86;63.57
61742;BME280;47650;49.848;9.620;2023-02-04T00:42:05;100762.78;;;8.27;63.37
61742;BME280;47650;49.848;9.620;2023-02-04T00:44:30;100774.88;;;8.04;64.39
61742;BME280;47650;49.848;9.620;2023-02-04T00:46:55;100768.69;;;8.58;62.68
61742;BME280;47650;49.848;9.620;2023-02-04T00:49:34;100788.50;;;8.38;62.08
61742;BME280;47650;49.848;9.620;2023-02-04T00:52:00;100779.78;;;8.10;63.59
61742;BME280;47650;49.848;9.620;2023-02-04T00:54:27;100762.25;;;7.67;64.07
61742;BME280;47650;49.848;9.620;2023-02-04T00:56:54;100779.41;;;7.75;64.33
61742;BME280;47650;49.848;9.620;2023-02-04T00:59:21;100790.22;;;7.84;64.19
61742;BME280;47650;49.848;9.620;2023-02-04T01:01:54;100774.53;;;7.68;64.39
61742;BME280;47650;49.848;9.620;2023-02-04T01:04:27;100783.97;;;7.58;64.40
61742;BME280;47650;49.848;9.620;2023-02-04T01:06:54;100801.53;;;7.45;64.69
61742;BME280;47650;49.848;9.620;2023-02-04T01:09:20;100798.75;;;7.61;64.23
61742;BME280;47650;49.848;9.620;2023-02-04T01:11:52;100783.28;;;7.69;64.07
61742;BME280;47650;49.848;9.620;2023-02-04T01:14:20;100803.91;;;7.77;63.81
61742;BME280;47650;49.848;9.620;2023-02-04T01:16:45;100809.78;;;7.67;63.65
61742;BME280;47650;49.848;9.620;2023-02-04T01:19:13;100806.59;;;7.48;64.72
61742;BME280;47650;49.848;9.620;2023-02-04T01:21:45;100829.50;;;7.47;64.69
61742;BME280;47650;49.848;9.620;2023-02-04T01:24:11;100806.16;;;7.27;65.16
61742;BME280;47650;49.848;9.620;2023-02-04T01:26:38;100808.50;;;7.46;64.55
61742;BME280;47650;49.848;9.620;2023-02-04T01:29:05;100832.88;;;7.64;64.29
61742;BME280;47650;49.848;9.620;2023-02-04T01:31:31;100820.75;;;7.32;63.89
61742;BME280;47650;49.848;9.620;2023-02-04T01:33:58;100788.72;;;7.24;63.71
61742;BME280;47650;49.848;9.620;2023-02-04T01:36:24;100756.88;;;6.99;64.15
61742;BME280;47650;49.848;9.620;2023-02-04T01:38:49;100846.19;;;7.48;63.97
61742;BME280;47650;49.848;9.620;2023-02-04T01:41:16;100852.31;;;7.48;64.37
61742;BME280;47650;49.848;9.620;2023-02-04T01:43:42;100858.03;;;7.26;64.90
61742;BME280;47650;49.848;9.620;2023-02-04T01:46:08;100849.38;;;7.39;64.53
61742;BME280;47650;49.848;9.620;2023-02-04T01:48:33;100852.88;;;7.39;64.01
61742;BME280;47650;49.848;9.620;2023-02-04T01:51:10;100811.97;;;6.89;64.78
61742;BME280;47650;49.848;9.620;2023-02-04T01:53:39;100833.72;;;6.92;64.47
61742;BME280;47650;49.848;9.620;2023-02-04T01:56:20;100797.50;;;6.66;65.12
61742;BME280;47650;49.848;9.620;2023-02-04T01:58:48;100843.19;;;7.25;63.94
61742;BME280;47650;49.848;9.620;2023-02-04T02:01:36;100852.19;;;7.07;64.36
61742;BME280;47650;49.848;9.620;2023-02-04T02:04:03;100843.53;;;7.05;64.45
61742;BME280;47650;49.848;9.620;2023-02-04T02:06:30;100837.69;;;7.00;64.34
61742;BME280;47650;49.848;9.620;2023-02-04T02:08:59;100750.41;;;6.45;63.37
61742;BME280;47650;49.848;9.620;2023-02-04T02:11:33;100847.66;;;6.94;63.89
61742;BME280;47650;49.848;9.620;2023-02-04T02:14:02;100858.75;;;6.85;64.01
61742;BME280;47650;49.848;9.620;2023-02-04T02:16:27;100833.25;;;6.86;63.34
61742;BME280;47650;49.848;9.620;2023-02-04T02:18:55;100801.13;;;6.79;63.19
61742;BME280;47650;49.848;9.620;2023-02-04T02:21:44;100848.72;;;7.21;62.82
61742;BME280;47650;49.848;9.620;2023-02-04T02:24:27;100825.34;;;6.55;63.56
61742;BME280;47650;49.848;9.620;2023-02-04T02:26:55;100836.97;;;6.67;63.17
61742;BME280;47650;49.848;9.620;2023-02-04T02:29:26;100807.19;;;6.51;63.35
61742;BME280;47650;49.848;9.620;2023-02-04T02:31:54;100856.59;;;6.92;63.45
61742;BME280;47650;49.848;9.620;2023-02-04T02:34:22;100840.41;;;6.53;63.95
61742;BME280;47650;49.848;9.620;2023-02-04T02:36:51;100861.44;;;6.69;63.82
61742;BME280;47650;49.848;9.620;2023-02-04T02:39:26;100788.19;;;6.60;63.46
61742;BME280;47650;49.848;9.620;2023-02-04T02:42:19;100855.75;;;7.06;62.76
61742;BME280;47650;49.848;9.620;2023-02-04T02:44:45;100877.75;;;6.76;63.66
61742;BME280;47650;49.848;9.620;2023-02-04T02:47:24;100879.13;;;6.97;63.46
61742;BME280;47650;49.848;9.620;2023-02-04T02:49:58;100887.72;;;7.15;62.52
61742;BME280;47650;49.848;9.620;2023-02-04T02:52:25;100865.19;;;7.10;62.20
61742;BME280;47650;49.848;9.620;2023-02-04T02:54:51;100876.09;;;7.04;62.10
61742;BME280;47650;49.848;9.620;2023-02-04T02:57:21;100902.31;;;7.07;62.81
61742;BME280;47650;49.848;9.620;2023-02-04T02:59:47;100907.97;;;7.15;62.60
61742;BME280;47650;49.848;9.620;2023-02-04T03:02:18;100900.06;;;6.85;62.84
61742;BME280;47650;49.848;9.620;2023-02-04T03:04:56;100878.41;;;7.24;61.30
61742;BME280;47650;49.848;9.620;2023-02-04T03:07:35;100858.34;;;6.77;61.73
61742;BME280;47650;49.848;9.620;2023-02-04T03:10:04;100906.84;;;7.33;61.54
61742;BME280;47650;49.848;9.620;2023-02-04T03:12:38;100912.91;;;7.79;60.33
61742;BME280;47650;49.848;9.620;2023-02-04T03:15:19;100918.63;;;7.42;60.69
61742;BME280;47650;49.848;9.620;2023-02-04T03:17:53;100891.09;;;7.18;60.70
61742;BME280;47650;49.848;9.620;2023-02-04T03:20:23;100914.22;;;7.57;60.34
61742;BME280;47650;49.848;9.620;2023-02-04T03:22:56;100901.66;;;8.04;59.42
61742;BME280;47650;49.848;9.620;2023-02-04T03:25:23;100914.56;;;8.08;58.93
61742;BME280;47650;49.848;9.620;2023-02-04T03:27:54;100885.56;;;7.80;58.80
61742;BME280;47650;49.848;9.620;2023-02-04T03:30:37;100925.91;;;7.67;58.48
61742;BME280;47650;49.848;9.620;2023-02-04T03:33:02;100893.66;;;7.77;57.78
61742;BME280;47650;49.848;9.620;2023-02-04T03:35:29;100772.13;;;6.79;58.38
61742;BME280;47650;49.848;9.620;2023-02-04T03:37:54;100920.06;;;7.77;58.13
61742;BME280;47650;49.848;9.620;2023-02-04T03:40:19;100933.81;;;8.10;57.00
61742;BME280;47650;49.848;9.620;2023-02-04T03:42:45;100935.44;;;6.96;58.75
61742;BME280;47650;49.848;9.620;2023-02-04T03:45:12;100944.59;;;7.64;57.95
61742;BME280;47650;49.848;9.620;2023-02-04T03:47:44;100937.31;;;7.68;56.66
61742;BME280;47650;49.848;9.620;2023-02-04T03:50:11;100892.03;;;7.02;57.15
61742;BME280;47650;49.848;9.620;2023-02-04T03:52:45;100962.22;;;7.64;57.73
61742;BME280;47650;49.848;9.620;2023-02-04T03:55:21;100945.81;;;7.44;57.66
61742;BME280;47650;49.848;9.620;2023-02-04T03:57:56;100970.88;;;7.66;57.09
61742;BME280;47650;49.848;9.620;2023-02-04T04:00:21;100978.63;;;7.55;57.49
61742;BME280;47650;49.848;9.620;2023-02-04T04:02:48;100980.56;;;7.37;56.96
61742;BME280;47650;49.848;9.620;2023-02-04T04:05:18;100982.22;;;7.82;56.66
61742;BME280;47650;49.848;9.620;2023-02-04T04:07:44;100968.63;;;7.74;56.06
61742;BME280;47650;49.848;9.620;2023-02-04T04:10:10;100976.56;;;7.88;55.51
61742;BME280;47650;49.848;9.620;2023-02-04T04:12:37;100997.50;;;8.20;56.18
61742;BME280;47650;49.848;9.620;2023-02-04T04:15:09;100996.66;;;8.05;55.62
61742;BME280;47650;49.848;9.620;2023-02-04T04:17:35;100965.50;;;8.10;54.74
61742;BME280;47650;49.848;9.620;2023-02-04T04:20:04;101011.72;;;8.32;55.22
61742;BME280;47650;49.848;9.620;2023-02-04T04:22:32;100993.53;;;8.27;55.22
61742;BME280;47650;49.848;9.620;2023-02-04T04:25:08;100949.63;;;7.39;56.44
61742;BME280;47650;49.848;9.620;2023-02-04T04:27:33;101021.34;;;7.90;56.05
61742;BME280;47650;49.848;9.620;2023-02-04T04:29:59;100998.81;;;7.70;56.93
61742;BME280;47650;49.848;9.620;2023-02-04T04:32:24;100957.13;;;7.75;56.51
61742;BME280;47650;49.848;9.620;2023-02-04T04:34:51;101003.44;;;7.81;56.38
61742;BME280;47650;49.848;9.620;2023-02-04T04:37:20;101034.63;;;7.60;57.56
61742;BME280;47650;49.848;9.620;2023-02-04T04:39:46;101028.22;;;7.33;57.66
61742;BME280;47650;49.848;9.620;2023-02-04T04:42:11;100884.84;;;6.59;58.29
61742;BME280;47650;49.848;9.620;2023-02-04T04:44:40;101039.84;;;7.15;60.17
61742;BME280;47650;49.848;9.620;2023-02-04T04:47:06;101046.78;;;7.77;58.62
61742;BME280;47650;49.848;9.620;2023-02-04T04:49:31;101000.16;;;7.32;57.88
61742;BME280;47650;49.848;9.620;2023-02-04T04:52:05;101039.44;;;7.82;57.68
61742;BME280;47650;49.848;9.620;2023-02-04T04:54:32;101043.34;;;8.19;57.68
61742;BME280;47650;49.848;9.620;2023-02-04T04:56:57;100955.06;;;7.66;56.52
61742;BME280;47650;49.848;9.620;2023-02-04T04:59:24;100960.66;;;7.01;57.24
61742;BME280;47650;49.848;9.620;2023-02-04T05:01:56;101022.19;;;7.90;57.17
61742;BME280;47650;49.848;9.620;2023-02-04T05:04:23;101052.13;;;8.05;57.10
61742;BME280;47650;49.848;9.620;2023-02-04T05:06:55;101055.09;;;7.70;57.83
61742;BME280;47650;49.848;9.620;2023-02-04T05:09:28;101051.91;;;7.80;57.51
61742;BME280;47650;49.848;9.620;2023-02-04T05:11:53;101053.09;;;7.29;58.55
61742;BME280;47650;49.848;9.620;2023-02-04T05:14:20;101049.53;;;7.30;58.86
61742;BME280;47650;49.848;9.620;2023-02-04T05:16:54;101058.88;;;7.36;58.23
61742;BME280;47650;49.848;9.620;2023-02-04T05:19:19;101056.34;;;7.19;58.95
61742;BME280;47650;49.848;9.620;2023-02-04T05:21:44;101069.16;;;7.25;58.27
61742;BME280;47650;49.848;9.620;2023-02-04T05:24:12;101078.47;;;7.16;58.74
61742;BME280;47650;49.848;9.620;2023-02-04T05:26:38;101051.00;;;6.88;58.46
61742;BME280;47650;49.848;9.620;2023-02-04T05:29:04;101081.38;;;6.95;58.80
61742;BME280;47650;49.848;9.620;2023-02-04T05:31:31;101028.16;;;6.41;59.13
61742;BME280;47650;49.848;9.620;2023-02-04T05:34:08;101098.91;;;6.65;60.16
61742;BME280;47650;49.848;9.620;2023-02-04T05:36:33;101095.81;;;6.56;59.56
61742;BME280;47650;49.848;9.620;2023-02-04T05:39:06;101097.09;;;6.49;60.06
61742;BME280;47650;49.848;9.620;2023-02-04T05:41:32;101082.88;;;6.36;60.60
61742;BME280;47650;49.848;9.620;2023-02-04T05:44:01;101081.75;;;6.40;60.23
61742;BME280;47650;49.848;9.620;2023-02-04T05:46:26;101121.84;;;6.63;60.55
61742;BME280;47650;49.848;9.620;2023-02-04T05:48:54;101098.63;;;6.53;60.36
61742;BME280;47650;49.848;9.620;2023-02-04T05:51:19;101114.72;;;6.65;60.45
61742;BME280;47650;49.848;9.620;2023-02-04T05:53:46;101129.69;;;6.80;60.71
61742;BME280;47650;49.848;9.620;2023-02-04T05:56:20;101133.69;;;6.87;60.32
61742;BME280;47650;49.848;9.620;2023-02-04T05:58:45;101128.06;;;6.93;60.47
61742;BME280;47650;49.848;9.620;2023-02-04T06:01:11;101131.22;;;7.00;60.50
61742;BME280;47650;49.848;9.620;2023-02-04T06:03:44;101116.44;;;6.97;60.44
61742;BME280;47650;49.848;9.620;2023-02-04T06:06:09;101133.09;;;7.14;60.25
61742;BME280;47650;49.848;9.620;2023-02-04T06:08:34;101128.34;;;7.21;60.46
61742;BME280;47650;49.848;9.620;2023-02-04T06:11:02;100975.97;;;6.32;59.60
61742;BME280;47650;49.848;9.620;2023-02-04T06:13:28;101108.59;;;7.12;59.65
61742;BME280;47650;49.848;9.620;2023-02-04T06:15:54;101130.72;;;7.25;59.87
61742;BME280;47650;49.848;9.620;2023-02-04T06:18:20;101134.28;;;7.24;59.75
61742;BME280;47650;49.848;9.620;2023-02-04T06:20:48;101118.47;;;7.08;60.08
61742;BME280;47650;49.848;9.620;2023-02-04T06:23:13;101138.03;;;7.20;60.26
61742;BME280;47650;49.848;9.620;2023-02-04T06:25:39;101134.44;;;7.21;60.23
61742;BME280;47650;49.848;9.620;2023-02-04T06:28:05;101118.38;;;7.10;60.47
61742;BME280;47650;49.848;9.620;2023-02-04T06:30:31;101148.44;;;7.23;60.47
61742;BME280;47650;49.848;9.620;2023-02-04T06:32:58;101146.72;;;7.22;60.30
61742;BME280;47650;49.848;9.620;2023-02-04T06:35:29;101138.88;;;7.21;60.17
61742;BME280;47650;49.848;9.620;2023-02-04T06:37:56;101156.91;;;7.28;60.56
61742;BME280;47650;49.848;9.620;2023-02-04T06:40:24;101147.03;;;7.16;60.28
61742;BME280;47650;49.848;9.620;2023-02-04T06:42:57;101156.91;;;7.28;60.50
61742;BME280;47650;49.848;9.620;2023-02-04T06:45:22;101154.03;;;7.17;60.06
61742;BME280;47650;49.848;9.620;2023-02-04T06:47:48;101127.22;;;7.09;60.00
61742;BME280;47650;49.848;9.620;2023-02-04T06:50:20;101178.69;;;7.48;60.09
61742;BME280;47650;49.848;9.620;2023-02-04T06:52:57;101163.97;;;7.44;59.58
61742;BME280;47650;49.848;9.620;2023-02-04T06:55:24;101195.19;;;7.67;59.65
61742;BME280;47650;49.848;9.620;2023-02-04T06:57:49;101115.03;;;7.38;59.25
61742;BME280;47650;49.848;9.620;2023-02-04T07:00:21;101158.22;;;7.67;58.90
61742;BME280;47650;49.848;9.620;2023-02-04T07:02:47;101184.38;;;7.72;58.51
61742;BME280;47650;49.848;9.620;2023-02-04T07:05:12;101199.81;;;7.48;59.86
61742;BME280;47650;49.848;9.620;2023-02-04T07:07:39;101163.81;;;6.99;60.47
61742;BME280;47650;49.848;9.620;2023-02-04T07:10:11;101204.22;;;7.63;60.13
61742;BME280;47650;49.848;9.620;2023-02-04T07:12:37;101217.09;;;7.38;59.83
61742;BME280;47650;49.848;9.620;2023-02-04T07:15:05;101226.53;;;7.42;60.58
61742;BME280;47650;49.848;9.620;2023-02-04T07:17:31;101234.34;;;7.59;60.74
61742;BME280;47650;49.848;9.620;2023-02-04T07:19:57;101232.28;;;7.80;60.57
61742;BME280;47650;49.848;9.620;2023-02-04T07:22:24;101233.22;;;7.95;59.44
61742;BME280;47650;49.848;9.620;2023-02-04T07:24:50;101193.13;;;7.72;59.22
61742;BME280;47650;49.848;9.620;2023-02-04T07:27:17;101150.38;;;7.66;58.88
61742;BME280;47650;49.848;9.620;2023-02-04T07:29:45;101210.78;;;8.02;58.49
61742;BME280;47650;49.848;9.620;2023-02-04T07:32:20;101213.28;;;8.20;57.92
61742;BME280;47650;49.848;9.620;2023-02-04T07:34:51;101130.53;;;7.75;57.41
61742;BME280;47650;49.848;9.620;2023-02-04T07:37:16;101241.69;;;8.46;57.45
61742;BME280;47650;49.848;9.620;2023-02-04T07:39:41;101232.94;;;8.60;57.32
61742;BME280;47650;49.848;9.620;2023-02-04T07:42:08;101238.22;;;8.60;57.64
61742;BME280;47650;49.848;9.620;2023-02-04T07:44:43;101213.00;;;8.69;57.29
61742;BME280;47650;49.848;9.620;2023-02-04T07:47:11;101238.03;;;8.92;57.54
61742;BME280;47650;49.848;9.620;2023-02-04T07:49:37;101221.13;;;8.66;57.10
61742;BME280;47650;49.848;9.620;2023-02-04T07:52:05;101235.13;;;8.82;57.25
61742;BME280;47650;49.848;9.620;2023-02-04T07:54:30;101246.72;;;8.94;57.46
61742;BME280;47650;49.848;9.620;2023-02-04T07:56:56;101248.13;;;8.85;57.36
61742;BME280;47650;49.848;9.620;2023-02-04T07:59:29;101208.84;;;8.51;57.28
61742;BME280;47650;49.848;9.620;2023-02-04T08:01:57;101224.91;;;8.62;56.69
61742;BME280;47650;49.848;9.620;2023-02-04T08:04:23;101246.16;;;8.60;57.05
61742;BME280;47650;49.848;9.620;2023-02-04T08:06:50;101289.03;;;8.80;57.34
61742;BME280;47650;49.848;9.620;2023-02-04T08:09:23;101237.22;;;7.86;58.11
61742;BME280;47650;49.848;9.620;2023-02-04T08:11:52;101225.75;;;8.32;57.88
61742;BME280;47650;49.848;9.620;2023-02-04T08:14:23;101265.69;;;8.58;57.66
61742;BME280;47650;49.848;9.620;2023-02-04T08:16:48;101261.00;;;8.77;57.68
61742;BME280;47650;49.848;9.620;2023-02-04T08:19:14;101278.00;;;9.16;56.85
61742;BME280;47650;49.848;9.620;2023-02-04T08:21:45;101282.56;;;9.00;56.92
61742;BME280;47650;49.848;9.620;2023-02-04T08:24:14;101264.59;;;8.91;57.00
61742;BME280;47650;49.848;9.620;2023-02-04T08:26:48;101284.81;;;9.20;57.01
61742;BME280;47650;49.848;9.620;2023-02-04T08:29:21;101280.06;;;9.26;56.02
61742;BME280;47650;49.848;9.620;2023-02-04T08:31:47;101306.53;;;8.97;56.64
61742;BME280;47650;49.848;9.620;2023-02-04T08:34:13;101293.31;;;8.97;56.19
61742;BME280;47650;49.848;9.620;2023-02-04T08:36:38;101286.13;;;9.28;55.17
61742;BME280;47650;49.848;9.620;2023-02-04T08:39:05;101246.66;;;9.10;56.42
61742;BME280;47650;49.848;9.620;2023-02-04T08:41:31;101308.16;;;9.84;55.25
61742;BME280;47650;49.848;9.620;2023-02-04T08:44:06;101311.22;;;9.78;54.61
61742;BME280;47650;49.848;9.620;2023-02-04T08:46:31;101299.56;;;9.25;55.38
61742;BME280;47650;49.848;9.620;2023-02-04T08:48:58;101325.63;;;8.88;56.86
61742;BME280;47650;49.848;9.620;2023-02-04T08:51:24;101332.41;;;8.77;57.52
61742;BME280;47650;49.848;9.620;2023-02-04T08:53:50;101347.03;;;8.69;57.40
61742;BME280;47650;49.848;9.620;2023-02-04T08:56:17;101302.94;;;9.27;56.38
61742;BME280;47650;49.848;9.620;2023-02-04T08:58:45;101315.91;;;9.87;55.00
61742;BME280;47650;49.848;9.620;2023-02-04T09:01:11;101300.72;;;10.04;54.07
61742;BME280;47650;49.848;9.620;2023-02-04T09:03:39;101347.81;;;10.13;53.31
61742;BME280;47650;49.848;9.620;2023-02-04T09:06:06;101356.66;;;10.41;53.79
61742;BME280;47650;49.848;9.620;2023-02-04T09:08:32;101340.38;;;10.72;52.67
61742;BME280;47650;49.848;9.620;2023-02-04T09:11:06;101364.03;;;10.76;52.30
61742;BME280;47650;49.848;9.620;2023-02-04T09:13:31;101374.41;;;10.11;53.35
61742;BME280;47650;49.848;9.620;2023-02-04T09:16:00;101297.16;;;9.90;53.34
61742;BME280;47650;49.848;9.620;2023-02-04T09:18:25;101342.66;;;10.24;53.21
61742;BME280;47650;49.848;9.620;2023-02-04T09:20:51;101360.81;;;10.30;54.21
61742;BME280;47650;49.848;9.620;2023-02-04T09:23:17;101374.50;;;10.51;52.47
61742;BME280;47650;49.848;9.620;2023-02-04T09:25:47;101346.56;;;10.33;52.66
61742;BME280;47650;49.848;9.620;2023-02-04T09:28:14;101409.78;;;9.54;53.25
61742;BME280;47650;49.848;9.620;2023-02-04T09:30:42;101398.22;;;9.98;51.61
61742;BME280;47650;49.848;9.620;2023-02-04T09:33:09;101403.25;;;9.89;50.53
61742;BME280;47650;49.848;9.620;2023-02-04T09:35:40;101352.03;;;9.47;51.47
61742;BME280;47650;49.848;9.620;2023-02-04T09:38:08;101411.13;;;9.76;51.29
61742;BME280;47650;49.848;9.620;2023-02-04T09:40:36;101414.91;;;9.43;51.34
61742;BME280;47650;49.848;9.620;2023-02-04T09:43:12;101369.13;;;9.27;51.35
61742;BME280;47650;49.848;9.620;2023-02-04T09:45:41;101355.66;;;9.01;51.56
61742;BME280;47650;49.848;9.620;2023-02-04T09:48:10;101374.22;;;9.30;52.10
61742;BME280;47650;49.848;9.620;2023-02-04T09:50:41;101423.00;;;9.69;51.45
61742;BME280;47650;49.848;9.620;2023-02-04T09:53:12;101415.66;;;9.88;51.22
61742;BME280;47650;49.848;9.620;2023-02-04T09:55:43;101414.19;;;10.11;50.80
61742;BME280;47650;49.848;9.620;2023-02-04T09:58:13;101418.06;;;9.91;50.65
61742;BME280;47650;49.848;9.620;2023-02-04T10:00:45;101419.19;;;10.02;51.55
61742;BME280;47650;49.848;9.620;2023-02-04T10:03:16;101433.19;;;10.18;51.31
61742;BME280;47650;49.848;9.620;2023-02-04T10:05:44;101440.03;;;10.08;50.70
61742;BME280;47650;49.848;9.620;2023-02-04T10:08:20;101418.75;;;10.64;50.68
61742;BME280;47650;49.848;9.620;2023-02-04T10:10:48;101420.03;;;10.98;49.27
61742;BME280;47650;49.848;9.620;2023-02-04T10:13:20;101364.41;;;10.29;49.55
61742;BME280;47650;49.848;9.620;2023-02-04T10:15:48;101432.00;;;10.78;50.17
61742;BME280;47650;49.848;9.620;2023-02-04T10:18:26;101426.53;;;11.20;47.07
61742;BME280;47650;49.848;9.620;2023-02-04T10:21:10;101432.19;;;10.88;46.93
61742;BME280;47650;49.848;9.620;2023-02-04T10:23:48;101433.34;;;11.50;47.02
61742;BME280;47650;49.848;9.620;2023-02-04T10:26:14;101395.81;;;11.67;46.68
61742;BME280;47650;49.848;9.620;2023-02-04T10:28:43;101446.09;;;12.33;45.72
61742;BME280;47650;49.848;9.620;2023-02-04T10:31:27;101448.44;;;12.25;45.57
61742;BME280;47650;49.848;9.620;2023-02-04T10:36:33;101356.78;;;12.17;43.58
61742;BME280;47650;49.848;9.620;2023-02-04T10:39:10;101403.53;;;12.33;44.48
61742;BME280;47650;49.848;9.620;2023-02-04T10:41:38;101451.69;;;12.04;45.38
61742;BME280;47650;49.848;9.620;2023-02-04T10:44:06;101459.16;;;11.99;45.90
61742;BME280;47650;49.848;9.620;2023-02-04T10:46:42;101458.50;;;11.82;46.06
61742;BME280;47650;49.848;9.620;2023-02-04T10:49:22;101365.13;;;11.24;46.14
61742;BME280;47650;49.848;9.620;2023-02-04T10:51:51;101469.38;;;11.92;46.12
61742;BME280;47650;49.848;9.620;2023-02-04T10:54:24;101409.44;;;11.50;44.91
61742;BME280;47650;49.848;9.620;2023-02-04T10:59:30;101436.53;;;11.29;46.42
61742;BME280;47650;49.848;9.620;2023-02-04T11:01:57;101456.41;;;11.62;46.03
61742;BME280;47650;49.848;9.620;2023-02-04T11:04:31;101447.66;;;11.47;45.69
61742;BME280;47650;49.848;9.620;2023-02-04T11:07:10;101394.38;;;11.37;45.62
61742;BME280;47650;49.848;9.620;2023-02-04T11:09:42;101444.50;;;11.55;44.97
61742;BME280;47650;49.848;9.620;2023-02-04T11:12:22;101437.28;;;11.57;44.03
61742;BME280;47650;49.848;9.620;2023-02-04T11:14:57;101438.53;;;11.77;44.72
61742;BME280;47650;49.848;9.620;2023-02-04T11:17:30;101422.41;;;11.54;44.91
61742;BME280;47650;49.848;9.620;2023-02-04T11:19:57;101472.44;;;11.47;45.81
61742;BME280;47650;49.848;9.620;2023-02-04T11:22:40;101477.13;;;10.91;46.56
61742;BME280;47650;49.848;9.620;2023-02-04T11:25:33;101479.59;;;10.67;46.85
61742;BME280;47650;49.848;9.620;2023-02-04T11:27:59;101435.59;;;10.90;46.46
61742;BME280;47650;49.848;9.620;2023-02-04T11:30:32;101475.84;;;11.50;45.72
61742;BME280;47650;49.848;9.620;2023-02-04T11:33:04;101463.78;;;11.05;46.69
61742;BME280;47650;49.848;9.620;2023-02-04T11:35:31;101469.72;;;10.96;46.97
61742;BME280;47650;49.848;9.620;2023-02-04T11:38:23;101490.75;;;10.99;47.09
61742;BME280;47650;49.848;9.620;2023-02-04T11:40:55;101485.00;;;11.05;47.03
61742;BME280;47650;49.848;9.620;2023-02-04T11:43:21;101484.81;;;11.08;46.99
61742;BME280;47650;49.848;9.620;2023-02-04T11:46:18;101393.66;;;10.82;47.24
61742;BME280;47650;49.848;9.620;2023-02-04T11:48:56;101488.16;;;11.25;44.57
61742;BME280;47650;49.848;9.620;2023-02-04T11:51:34;101485.25;;;11.28;45.71
61742;BME280;47650;49.848;9.620;2023-02-04T11:54:05;101486.03;;;11.56;45.29
61742;BME280;47650;49.848;9.620;2023-02-04T11:56:33;101488.28;;;10.96;45.65
61742;BME280;47650;49.848;9.620;2023-02-04T11:59:00;101402.50;;;10.28;46.44
61742;BME280;47650;49.848;9.620;2023-02-04T12:01:40;101486.19;;;10.74;46.79
61742;BME280;47650;49.848;9.620;2023-02-04T12:04:07;101487.53;;;9.96;48.02
61742;BME280;47650;49.848;9.620;2023-02-04T12:07:02;101489.81;;;10.31;48.23
61742;BME280;47650;49.848;9.620;2023-02-04T12:09:29;101502.66;;;10.23;48.71
61742;BME280;47650;49.848;9.620;2023-02-04T12:12:02;101502.56;;;10.25;48.73
61742;BME280;47650;49.848;9.620;2023-02-04T12:14:36;101507.00;;;10.24;48.81
61742;BME280;47650;49.848;9.620;2023-02-04T12:17:22;101501.09;;;10.35;49.80
61742;BME280;47650;49.848;9.620;2023-02-04T12:19:57;101490.16;;;10.40;51.29
61742;BME280;47650;49.848;9.620;2023-02-04T12:22:22;101515.34;;;9.89;51.36
61742;BME280;47650;49.848;9.620;2023-02-04T12:25:10;101450.66;;;9.50;52.67
61742;BME280;47650;49.848;9.620;2023-02-04T12:27:51;101505.19;;;8.62;54.15
61742;BME280;47650;49.848;9.620;2023-02-04T12:30:20;101505.13;;;9.54;53.87
61742;BME280;47650;49.848;9.620;2023-02-04T12:32:48;101459.44;;;8.60;53.59
61742;BME280;47650;49.848;9.620;2023-02-04T12:35:14;101502.94;;;9.47;52.96
61742;BME280;47650;49.848;9.620;2023-02-04T12:37:52;101524.63;;;9.82;52.53
61742;BME280;47650;49.848;9.620;2023-02-04T12:40:21;101506.66;;;9.87;52.35
61742;BME280;47650;49.848;9.620;2023-02-04T12:42:53;101498.91;;;10.42;52.20
61742;BME280;47650;49.848;9.620;2023-02-04T12:45:20;101527.84;;;10.59;51.91
61742;BME280;47650;49.848;9.620;2023-02-04T12:47:47;101521.13;;;10.10;51.71
61742;BME280;47650;49.848;9.620;2023-02-04T12:50:20;101533.91;;;10.88;50.40
61742;BME280;47650;49.848;9.620;2023-02-04T12:52:58;101405.59;;;10.62;49.74
61742;BME280;47650;49.848;9.620;2023-02-04T12:55:26;101523.22;;;11.56;49.69
61742;BME280;47650;49.848;9.620;2023-02-04T12:57:54;101509.53;;;11.75;48.44
61742;BME280;47650;49.848;9.620;2023-02-04T13:00:23;101506.34;;;11.82;47.39
61742;BME280;47650;49.848;9.620;2023-02-04T13:02:48;101476.81;;;12.00;47.43
61742;BME280;47650;49.848;9.620;2023-02-04T13:05:20;101481.09;;;12.27;47.06
61742;BME280;47650;49.848;9.620;2023-02-04T13:07:45;101481.91;;;12.53;45.93
61742;BME280;47650;49.848;9.620;2023-02-04T13:10:13;101481.63;;;12.32;45.02
61742;BME280;47650;49.848;9.620;2023-02-04T13:12:38;101501.88;;;12.83;46.15
61742;BME280;47650;49.848;9.620;2023-02-04T13:15:08;101466.03;;;13.11;44.48